createdAt,value
2018-08-23T00:01:17.908Z,100.00
2018-08-23T00:02:53.151Z,100.00
2018-08-23T00:04:12.589Z,100.00
2018-08-23T00:05:44.138Z,100.00
2018-08-23T00:07:07.693Z,100.00
2018-08-23T00:08:39.120Z,100.00
2018-08-23T00:10:02.619Z,100.00
2018-08-23T00:11:29.065Z,100.00
2018-08-23T00:12:56.477Z,100.00
2018-08-23T00:14:22.992Z,100.00
2018-08-23T00:15:49.011Z,100.00
2018-08-23T00:17:19.519Z,100.00
2018-08-23T00:18:47.107Z,100.00
2018-08-23T00:20:10.558Z,100.00
2018-08-23T00:21:42.044Z,100.00
2018-08-23T00:23:05.608Z,100.00
2018-08-23T00:24:37.083Z,100.00
2018-08-23T00:26:03.518Z,100.00
2018-08-23T00:27:29.950Z,100.00
2018-08-23T00:28:57.380Z,100.00
2018-08-23T00:30:20.801Z,100.00
2018-08-23T00:31:52.250Z,100.00
2018-08-23T00:33:15.694Z,100.00
2018-08-23T00:34:43.273Z,100.00
2018-08-23T00:36:09.634Z,100.00
2018-08-23T00:37:37.094Z,100.00
2018-08-23T00:39:08.579Z,100.00
2018-08-23T00:40:36.114Z,100.00
2018-08-23T00:41:58.385Z,100.00
2018-08-23T00:43:30.034Z,100.00
2018-08-23T00:44:53.504Z,100.00
2018-08-23T00:46:21.037Z,100.00
2018-08-23T00:47:48.047Z,100.00
2018-08-23T00:49:15.705Z,100.00
2018-08-23T00:50:47.012Z,100.00
2018-08-23T00:52:14.567Z,100.00
2018-08-23T00:53:41.874Z,100.00
2018-08-23T00:55:05.586Z,100.00
2018-08-23T00:56:33.048Z,100.00
2018-08-23T00:57:59.552Z,100.00
2018-08-23T00:59:26.714Z,100.00
2018-08-23T01:00:52.989Z,100.00
2018-08-23T01:02:23.631Z,100.00
2018-08-23T01:03:45.961Z,100.00
2018-08-23T01:05:13.422Z,100.00
2018-08-23T01:06:45.088Z,100.00
2018-08-23T01:08:11.371Z,100.00
2018-08-23T01:09:37.520Z,100.00
2018-08-23T01:11:00.877Z,100.00
2018-08-23T01:12:28.224Z,100.00
2018-08-23T01:13:55.749Z,100.00
2018-08-23T01:15:23.090Z,100.00
2018-08-23T01:16:49.808Z,100.00
2018-08-23T01:18:21.634Z,100.00
2018-08-23T01:19:45.137Z,100.00
2018-08-23T01:21:11.588Z,100.00
2018-08-23T01:22:38.895Z,100.00
2018-08-23T01:24:06.543Z,100.00
2018-08-23T01:25:34.209Z,100.00
2018-08-23T01:27:01.737Z,100.00
2018-08-23T01:28:30.007Z,100.00
2018-08-23T01:29:59.479Z,100.00
2018-08-23T01:31:25.870Z,100.00
2018-08-23T01:32:53.320Z,100.00
2018-08-23T01:34:15.411Z,100.00
2018-08-23T01:35:42.791Z,100.00
2018-08-23T01:37:14.326Z,100.00
2018-08-23T01:38:41.783Z,100.00
2018-08-23T01:40:05.339Z,100.00
2018-08-23T01:41:36.759Z,100.00
2018-08-23T01:43:00.235Z,100.00
2018-08-23T01:44:31.780Z,100.00
2018-08-23T01:45:55.149Z,100.00
2018-08-23T01:47:25.903Z,100.00
2018-08-23T01:48:53.373Z,100.00
2018-08-23T01:50:20.898Z,100.00
2018-08-23T01:51:48.228Z,100.00
2018-08-23T01:53:15.758Z,100.00
2018-08-23T01:54:39.129Z,100.00
2018-08-23T01:56:10.690Z,100.00
2018-08-23T01:57:34.210Z,100.00
2018-08-23T01:59:05.685Z,100.00
2018-08-23T02:00:28.948Z,100.00
2018-08-23T02:01:55.497Z,100.00
2018-08-23T02:03:23.139Z,100.00
2018-08-23T02:04:50.325Z,100.00
2018-08-23T02:06:21.834Z,100.00
2018-08-23T02:07:49.187Z,100.00
2018-08-23T02:09:15.376Z,100.00
2018-08-23T02:10:37.708Z,100.00
2018-08-23T02:12:09.293Z,100.00
2018-08-23T02:13:32.701Z,100.00
2018-08-23T02:15:04.112Z,100.00
2018-08-23T02:16:31.689Z,100.00
2018-08-23T02:17:55.183Z,100.00
2018-08-23T02:19:22.184Z,100.00
2018-08-23T02:20:49.254Z,100.00
2018-08-23T02:22:20.862Z,100.00
2018-08-23T02:23:48.037Z,100.00
2018-08-23T02:25:11.338Z,100.00
2018-08-23T02:26:41.709Z,100.00
2018-08-23T02:28:05.029Z,100.00
2018-08-23T02:29:35.197Z,100.00
2018-08-23T02:30:57.511Z,100.00
2018-08-23T02:32:27.757Z,100.00
2018-08-23T02:33:54.528Z,100.00
2018-08-23T02:35:20.973Z,100.00
2018-08-23T02:36:44.339Z,100.00
2018-08-23T02:38:15.908Z,100.00
2018-08-23T02:39:39.048Z,100.00
2018-08-23T02:41:06.820Z,100.00
2018-08-23T02:42:34.212Z,100.00
2018-08-23T02:44:01.468Z,100.00
2018-08-23T02:45:29.193Z,100.00
2018-08-23T02:46:56.448Z,100.00
2018-08-23T02:48:23.918Z,100.00
2018-08-23T02:49:55.496Z,100.00
2018-08-23T02:51:23.827Z,100.00
2018-08-23T02:52:46.163Z,100.00
2018-08-23T02:54:13.713Z,100.00
2018-08-23T02:55:45.226Z,100.00
2018-08-23T02:58:40.171Z,100.00
2018-08-23T03:00:03.510Z,100.00
2018-08-23T03:01:31.084Z,100.00
2018-08-23T03:02:58.341Z,100.00
2018-08-23T03:04:29.914Z,100.00
2018-08-23T03:05:52.552Z,100.00
2018-08-23T03:07:23.991Z,100.00
2018-08-23T03:08:50.355Z,100.00
2018-08-23T03:10:17.764Z,100.00
2018-08-23T03:11:45.159Z,100.00
2018-08-23T03:13:11.455Z,100.00
2018-08-23T03:14:38.955Z,100.00
2018-08-23T03:16:06.445Z,100.00
2018-08-23T03:17:29.736Z,100.00
2018-08-23T03:18:56.365Z,100.00
2018-08-23T03:23:16.901Z,100.00
2018-08-23T03:24:48.308Z,100.00
2018-08-23T03:26:15.667Z,100.00
2018-08-23T03:27:42.981Z,100.00
2018-08-23T03:29:06.599Z,100.00
2018-08-23T03:30:34.089Z,100.00
2018-08-23T03:32:06.557Z,100.00
2018-08-23T03:33:32.913Z,100.00
2018-08-23T03:35:00.148Z,100.00
2018-08-23T03:36:27.556Z,100.00
2018-08-23T03:37:54.913Z,100.00
2018-08-23T03:39:18.508Z,100.00
2018-08-23T03:40:44.300Z,100.00
2018-08-23T03:42:11.630Z,100.00
2018-08-23T03:43:42.940Z,100.00
2018-08-23T03:46:33.787Z,100.00
2018-08-23T03:48:05.190Z,100.00
2018-08-23T03:49:28.623Z,100.00
2018-08-23T03:50:56.244Z,100.00
2018-08-23T03:52:23.720Z,100.00
2018-08-23T03:53:51.267Z,100.00
2018-08-23T03:56:43.967Z,100.00
2018-08-23T03:58:15.434Z,100.00
2018-08-23T03:59:41.818Z,100.00
2018-08-23T04:01:05.075Z,100.00
2018-08-23T04:02:36.739Z,100.00
2018-08-23T04:04:00.224Z,100.00
2018-08-23T04:05:31.353Z,100.00
2018-08-23T04:06:58.796Z,100.00
2018-08-23T04:08:26.296Z,100.00
2018-08-23T04:09:49.724Z,100.00
2018-08-23T04:11:17.123Z,100.00
2018-08-23T04:12:47.485Z,100.00
2018-08-23T04:14:13.695Z,100.00
2018-08-23T04:15:39.588Z,100.00
2018-08-23T04:17:07.273Z,100.00
2018-08-23T04:18:34.590Z,100.00
2018-08-23T04:20:01.041Z,100.00
2018-08-23T04:21:24.342Z,100.00
2018-08-23T04:22:55.927Z,100.00
2018-08-23T04:24:23.162Z,100.00
2018-08-23T04:25:50.639Z,100.00
2018-08-23T04:27:16.576Z,100.00
2018-08-23T04:28:39.987Z,100.00
2018-08-23T04:30:07.601Z,100.00
2018-08-23T04:31:33.822Z,100.00
2018-08-23T04:33:05.465Z,100.00
2018-08-23T04:34:27.862Z,100.00
2018-08-23T04:35:59.012Z,100.00
2018-08-23T04:37:26.208Z,100.00
2018-08-23T04:38:49.635Z,100.00
2018-08-23T04:40:21.025Z,100.00
2018-08-23T04:41:44.496Z,100.00
2018-08-23T04:43:12.107Z,100.00
2018-08-23T04:44:38.606Z,100.00
2018-08-23T04:46:05.945Z,100.00
2018-08-23T04:47:37.376Z,100.00
2018-08-23T04:49:04.817Z,100.00
2018-08-23T04:50:28.138Z,100.00
2018-08-23T04:51:59.226Z,100.00
2018-08-23T04:53:21.627Z,100.00
2018-08-23T04:54:48.815Z,100.00
2018-08-23T04:56:16.276Z,100.00
2018-08-23T04:57:43.759Z,100.00
2018-08-23T04:59:11.275Z,100.00
2018-08-23T05:00:42.645Z,100.00
2018-08-23T05:02:10.133Z,100.00
2018-08-23T05:03:33.455Z,100.00
2018-08-23T05:05:04.790Z,100.00
2018-08-23T05:06:28.076Z,100.00
2018-08-23T05:09:27.319Z,100.00
2018-08-23T05:10:48.978Z,100.00
2018-08-23T05:12:20.354Z,100.00
2018-08-23T05:13:43.692Z,100.00
2018-08-23T05:15:11.244Z,100.00
2018-08-23T05:16:38.826Z,100.00
2018-08-23T05:18:06.320Z,100.00
2018-08-23T05:19:33.756Z,100.00
2018-08-23T05:21:05.324Z,100.00
2018-08-23T05:22:28.647Z,100.00
2018-08-23T05:24:00.204Z,100.00
2018-08-23T05:25:27.776Z,100.00
2018-08-23T05:26:55.309Z,100.00
2018-08-23T05:28:22.783Z,100.00
2018-08-23T05:29:50.321Z,100.00
2018-08-23T05:31:16.671Z,100.00
2018-08-23T05:32:40.048Z,100.00
2018-08-23T05:34:07.620Z,100.00
2018-08-23T05:35:39.023Z,100.00
2018-08-23T05:37:02.437Z,100.00
2018-08-23T05:38:30.183Z,100.00
2018-08-23T05:39:57.814Z,100.00
2018-08-23T05:41:29.275Z,100.00
2018-08-23T05:42:56.325Z,100.00
2018-08-23T05:44:19.400Z,100.00
2018-08-23T05:45:46.943Z,100.00
2018-08-23T05:47:14.496Z,100.00
2018-08-23T05:48:42.005Z,100.00
2018-08-23T05:50:13.676Z,100.00
2018-08-23T05:51:41.201Z,100.00
2018-08-23T05:53:07.436Z,100.00
2018-08-23T05:54:30.840Z,100.00
2018-08-23T05:55:57.301Z,100.00
2018-08-23T05:57:27.875Z,100.00
2018-08-23T05:58:51.419Z,100.00
2018-08-23T06:00:18.802Z,100.00
2018-08-23T06:01:44.957Z,100.00
2018-08-23T06:03:12.337Z,100.00
2018-08-23T06:04:43.727Z,100.00
2018-08-23T06:06:07.265Z,100.00
2018-08-23T06:09:00.881Z,100.00
2018-08-23T06:10:28.470Z,100.00
2018-08-23T06:13:27.157Z,100.00
2018-08-23T06:14:54.780Z,100.00
2018-08-23T06:16:18.154Z,100.00
2018-08-23T06:17:45.739Z,98.46
2018-08-23T06:19:13.238Z,97.97
2018-08-23T06:20:39.510Z,94.69
2018-08-23T06:22:05.935Z,93.44
2018-08-23T06:23:33.509Z,94.41
2018-08-23T06:26:27.178Z,92.78
2018-08-23T06:27:54.607Z,93.58
2018-08-23T06:29:20.936Z,93.37
2018-08-23T06:30:52.333Z,93.97
2018-08-23T06:32:19.814Z,94.39
2018-08-23T06:33:47.500Z,95.96
2018-08-23T06:35:14.851Z,94.04
2018-08-23T06:36:37.219Z,95.33
2018-08-23T06:38:04.818Z,96.92
2018-08-23T06:39:32.458Z,97.12
2018-08-23T06:41:03.667Z,95.28
2018-08-23T06:42:28.953Z,96.15
2018-08-23T06:43:52.393Z,93.98
2018-08-23T06:45:19.967Z,98.89
2018-08-23T06:46:51.702Z,94.03
2018-08-23T06:48:17.817Z,95.49
2018-08-23T06:49:41.228Z,96.01
2018-08-23T06:51:07.712Z,97.24
2018-08-23T06:52:34.239Z,95.78
2018-08-23T06:54:00.622Z,95.14
2018-08-23T06:55:28.137Z,93.14
2018-08-23T06:56:55.684Z,95.21
2018-08-23T06:58:26.937Z,95.06
2018-08-23T06:59:50.487Z,94.27
2018-08-23T07:01:21.960Z,91.77
2018-08-23T07:02:45.694Z,91.69
2018-08-23T07:04:17.030Z,90.42
2018-08-23T07:05:40.558Z,90.76
2018-08-23T07:07:07.156Z,91.31
2018-08-23T07:08:34.651Z,92.72
2018-08-23T07:10:04.852Z,94.36
2018-08-23T07:11:31.404Z,93.73
2018-08-23T07:12:54.683Z,94.12
2018-08-23T07:14:25.246Z,94.54
2018-08-23T07:15:48.776Z,96.38
2018-08-23T07:17:16.142Z,96.28
2018-08-23T07:18:47.580Z,95.37
2018-08-23T07:20:09.981Z,97.31
2018-08-23T07:21:41.587Z,98.31
2018-08-23T07:23:12.078Z,97.76
2018-08-23T07:24:36.614Z,98.42
2018-08-23T07:26:02.841Z,100.00
2018-08-23T07:27:30.473Z,100.00
2018-08-23T07:28:52.735Z,96.84
2018-08-23T07:31:46.154Z,96.47
2018-08-23T07:33:13.601Z,97.25
2018-08-23T07:34:45.092Z,97.96
2018-08-23T07:36:07.663Z,97.73
2018-08-23T07:37:35.379Z,96.19
2018-08-23T07:39:03.094Z,96.21
2018-08-23T07:40:34.470Z,95.23
2018-08-23T07:42:01.943Z,93.11
2018-08-23T07:43:25.467Z,94.31
2018-08-23T07:44:57.127Z,93.28
2018-08-23T07:46:23.748Z,92.48
2018-08-23T07:47:47.233Z,92.21
2018-08-23T07:49:14.975Z,93.29
2018-08-23T07:50:45.486Z,93.75
2018-08-23T07:52:08.127Z,93.38
2018-08-23T07:53:35.670Z,93.44
2018-08-23T07:55:07.171Z,90.75
2018-08-23T07:56:30.679Z,91.04
2018-08-23T07:57:58.176Z,90.91
2018-08-23T07:59:25.702Z,90.47
2018-08-23T08:00:56.912Z,87.14
2018-08-23T08:02:28.074Z,87.50
2018-08-23T08:03:47.426Z,88.68
2018-08-23T08:05:14.908Z,88.88
2018-08-23T08:06:42.295Z,88.68
2018-08-23T08:08:09.010Z,89.08
2018-08-23T08:09:40.551Z,86.37
2018-08-23T08:11:08.044Z,86.10
2018-08-23T08:12:30.881Z,84.21
2018-08-23T08:13:58.044Z,84.71
2018-08-23T08:15:25.615Z,82.66
2018-08-23T08:16:56.848Z,81.36
2018-08-23T08:18:20.516Z,79.69
2018-08-23T08:19:48.128Z,80.02
2018-08-23T08:21:14.357Z,81.25
2018-08-23T08:22:41.782Z,80.60
2018-08-23T08:24:09.565Z,77.95
2018-08-23T08:25:37.092Z,78.28
2018-08-23T08:27:04.736Z,77.14
2018-08-23T08:28:36.240Z,77.96
2018-08-23T08:30:03.859Z,78.79
2018-08-23T08:31:27.503Z,77.15
2018-08-23T08:32:55.062Z,76.52
2018-08-23T08:34:26.004Z,73.44
2018-08-23T08:35:52.436Z,74.41
2018-08-23T08:37:15.950Z,74.76
2018-08-23T08:38:47.406Z,75.49
2018-08-23T08:40:10.036Z,74.55
2018-08-23T08:41:37.267Z,74.91
2018-08-23T08:43:07.690Z,76.39
2018-08-23T08:44:31.159Z,74.90
2018-08-23T08:45:58.755Z,75.01
2018-08-23T08:47:25.580Z,75.38
2018-08-23T08:48:56.857Z,74.27
2018-08-23T08:50:20.070Z,72.76
2018-08-23T08:51:47.802Z,72.08
2018-08-23T08:53:15.439Z,71.38
2018-08-23T08:54:42.944Z,72.64
2018-08-23T08:56:14.745Z,73.10
2018-08-23T08:57:37.603Z,72.73
2018-08-23T08:59:09.253Z,72.61
2018-08-23T09:00:36.927Z,73.29
2018-08-23T09:02:03.946Z,70.73
2018-08-23T09:03:27.491Z,72.12
2018-08-23T09:04:55.305Z,72.63
2018-08-23T09:06:22.504Z,71.67
2018-08-23T09:07:49.105Z,71.44
2018-08-23T09:09:16.805Z,69.69
2018-08-23T09:10:43.223Z,70.41
2018-08-23T09:12:13.762Z,68.64
2018-08-23T09:13:37.386Z,69.26
2018-08-23T09:15:05.090Z,68.45
2018-08-23T09:16:36.817Z,67.09
2018-08-23T09:18:00.487Z,67.00
2018-08-23T09:19:31.347Z,63.97
2018-08-23T09:20:55.001Z,64.72
2018-08-23T09:22:22.556Z,66.01
2018-08-23T09:23:53.274Z,64.60
2018-08-23T09:25:17.165Z,61.42
2018-08-23T09:26:44.812Z,59.72
2018-08-23T09:28:12.479Z,60.23
2018-08-23T09:29:39.528Z,59.59
2018-08-23T09:31:07.365Z,59.50
2018-08-23T09:32:38.878Z,60.53
2018-08-23T09:34:02.776Z,59.68
2018-08-23T09:35:30.099Z,60.42
2018-08-23T09:36:57.712Z,60.59
2018-08-23T09:38:25.627Z,60.51
2018-08-23T09:39:56.896Z,60.98
2018-08-23T09:41:24.135Z,60.16
2018-08-23T09:42:46.447Z,61.04
2018-08-23T09:44:18.056Z,61.35
2018-08-23T09:45:41.688Z,61.75
2018-08-23T09:47:12.149Z,61.66
2018-08-23T09:48:35.421Z,59.97
2018-08-23T09:50:03.059Z,60.08
2018-08-23T09:51:34.420Z,59.65
2018-08-23T09:52:58.004Z,59.30
2018-08-23T09:54:25.713Z,61.06
2018-08-23T09:55:53.359Z,59.48
2018-08-23T09:57:25.061Z,58.66
2018-08-23T09:58:48.414Z,60.12
2018-08-23T10:00:16.202Z,60.09
2018-08-23T10:01:44.010Z,59.91
2018-08-23T10:03:14.688Z,59.95
2018-08-23T10:04:42.355Z,59.81
2018-08-23T10:06:05.089Z,59.46
2018-08-23T10:07:35.497Z,59.29
2018-08-23T10:08:59.177Z,59.30
2018-08-23T10:10:30.867Z,59.41
2018-08-23T10:11:58.559Z,58.66
2018-08-23T10:13:22.229Z,59.10
2018-08-23T10:14:49.838Z,58.88
2018-08-23T10:16:17.528Z,57.71
2018-08-23T10:17:45.200Z,57.45
2018-08-23T10:19:12.863Z,57.31
2018-08-23T10:20:40.634Z,56.53
2018-08-23T10:22:08.314Z,56.97
2018-08-23T10:23:39.245Z,56.34
2018-08-23T10:25:02.913Z,57.28
2018-08-23T10:26:30.661Z,56.85
2018-08-23T10:27:58.262Z,56.78
2018-08-23T10:29:25.909Z,58.45
2018-08-23T10:30:53.105Z,57.06
2018-08-23T10:32:24.844Z,56.68
2018-08-23T10:33:52.094Z,56.86
2018-08-23T10:35:15.641Z,56.35
2018-08-23T10:36:42.517Z,56.29
2018-08-23T10:38:10.141Z,56.19
2018-08-23T10:39:37.850Z,56.54
2018-08-23T10:41:09.578Z,56.83
2018-08-23T10:42:37.319Z,57.73
2018-08-23T10:44:00.885Z,56.78
2018-08-23T10:45:28.289Z,56.67
2018-08-23T10:46:59.852Z,56.32
2018-08-23T10:48:23.143Z,57.10
2018-08-23T10:49:50.207Z,56.75
2018-08-23T10:51:17.057Z,56.35
2018-08-23T10:52:48.342Z,55.51
2018-08-23T10:54:16.071Z,55.90
2018-08-23T10:55:39.220Z,55.98
2018-08-23T10:57:06.697Z,58.32
2018-08-23T10:58:34.377Z,55.58
2018-08-23T11:00:05.353Z,55.65
2018-08-23T11:01:29.059Z,55.75
2018-08-23T11:02:56.560Z,55.71
2018-08-23T11:04:24.272Z,55.04
2018-08-23T11:05:55.725Z,55.23
2018-08-23T11:07:18.728Z,55.32
2018-08-23T11:08:50.262Z,55.68
2018-08-23T11:10:12.929Z,56.46
2018-08-23T11:11:39.439Z,58.39
2018-08-23T11:13:05.722Z,59.17
2018-08-23T11:14:33.461Z,57.70
2018-08-23T11:16:01.091Z,56.27
2018-08-23T11:17:27.944Z,55.52
2018-08-23T11:18:59.450Z,55.50
2018-08-23T11:20:22.841Z,55.02
2018-08-23T11:21:54.209Z,56.21
2018-08-23T11:23:22.018Z,55.53
2018-08-23T11:24:45.714Z,55.06
2018-08-23T11:26:12.733Z,55.38
2018-08-23T11:27:44.358Z,54.95
2018-08-23T11:29:12.116Z,56.25
2018-08-23T11:30:39.556Z,56.31
2018-08-23T11:32:07.129Z,56.79
2018-08-23T11:33:30.791Z,57.16
2018-08-23T11:34:57.455Z,55.58
2018-08-23T11:36:24.204Z,55.94
2018-08-23T11:37:51.765Z,54.42
2018-08-23T11:39:19.550Z,53.81
2018-08-23T11:40:47.274Z,55.14
2018-08-23T11:42:14.979Z,52.60
2018-08-23T11:43:46.683Z,53.47
2018-08-23T11:45:10.410Z,50.71
2018-08-23T11:46:38.040Z,50.06
2018-08-23T11:48:05.824Z,50.41
2018-08-23T11:49:33.485Z,49.75
2018-08-23T11:51:05.118Z,49.08
2018-08-23T11:52:27.636Z,49.50
2018-08-23T11:53:55.309Z,48.89
2018-08-23T11:55:22.894Z,49.44
2018-08-23T11:56:54.593Z,50.45
2018-08-23T11:58:18.234Z,50.33
2018-08-23T11:59:45.865Z,49.89
2018-08-23T12:01:13.615Z,49.51
2018-08-23T12:02:41.379Z,49.19
2018-08-23T12:04:08.997Z,48.86
2018-08-23T12:05:35.739Z,49.11
2018-08-23T12:07:02.043Z,48.73
2018-08-23T12:08:29.649Z,48.41
2018-08-23T12:09:57.425Z,47.58
2018-08-23T12:11:24.461Z,47.78
2018-08-23T12:12:51.733Z,47.89
2018-08-23T12:14:19.027Z,47.00
2018-08-23T12:15:46.674Z,46.55
2018-08-23T12:17:14.468Z,46.72
2018-08-23T12:18:46.051Z,46.51
2018-08-23T12:20:09.753Z,45.89
2018-08-23T12:21:36.773Z,46.83
2018-08-23T12:23:04.606Z,47.40
2018-08-23T12:24:32.262Z,48.18
2018-08-23T12:26:00.313Z,47.60
2018-08-23T12:27:27.694Z,47.82
2018-08-23T12:28:54.666Z,47.77
2018-08-23T12:30:26.330Z,46.78
2018-08-23T12:31:49.834Z,47.09
2018-08-23T12:33:17.582Z,46.64
2018-08-23T12:34:45.373Z,46.67
2018-08-23T12:36:13.010Z,45.64
2018-08-23T12:37:44.853Z,45.19
2018-08-23T12:39:07.607Z,45.38
2018-08-23T12:40:34.373Z,45.33
2018-08-23T12:42:02.073Z,45.38
2018-08-23T12:43:29.894Z,45.44
2018-08-23T12:44:57.595Z,46.11
2018-08-23T12:46:25.344Z,45.62
2018-08-23T12:47:52.827Z,45.46
2018-08-23T12:49:19.752Z,44.38
2018-08-23T12:50:47.477Z,45.49
2018-08-23T12:52:13.969Z,45.81
2018-08-23T12:53:41.771Z,45.18
2018-08-23T12:55:09.546Z,44.85
2018-08-23T12:56:41.341Z,45.81
2018-08-23T12:58:05.218Z,44.72
2018-08-23T12:59:32.476Z,44.90
2018-08-23T13:01:00.281Z,45.34
2018-08-23T13:02:28.004Z,45.13
2018-08-23T13:03:55.079Z,45.69
2018-08-23T13:05:21.984Z,45.16
2018-08-23T13:06:49.559Z,44.42
2018-08-23T13:08:17.498Z,44.93
2018-08-23T13:09:49.165Z,45.83
2018-08-23T13:11:13.054Z,44.70
2018-08-23T13:12:39.720Z,44.63
2018-08-23T13:14:11.448Z,44.59
2018-08-23T13:15:35.258Z,44.62
2018-08-23T13:17:02.913Z,44.94
2018-08-23T13:18:30.502Z,45.21
2018-08-23T13:19:57.498Z,45.05
2018-08-23T13:21:24.894Z,45.13
2018-08-23T13:22:59.275Z,45.58
2018-08-23T13:24:18.926Z,45.51
2018-08-23T13:25:46.762Z,45.39
2018-08-23T13:27:18.555Z,45.49
2018-08-23T13:28:45.421Z,46.76
2018-08-23T13:30:09.174Z,45.95
2018-08-23T13:31:40.264Z,46.08
2018-08-23T13:33:04.037Z,47.41
2018-08-23T13:34:35.820Z,47.97
2018-08-23T13:35:59.613Z,48.61
2018-08-23T13:37:26.703Z,49.29
2018-08-23T13:38:53.496Z,49.15
2018-08-23T13:40:25.000Z,49.78
2018-08-23T13:41:52.637Z,49.65
2018-08-23T13:43:20.421Z,49.99
2018-08-23T13:44:47.269Z,48.77
2018-08-23T13:46:10.919Z,48.73
2018-08-23T13:47:38.601Z,48.71
2018-08-23T13:49:05.152Z,49.16
2018-08-23T13:50:32.817Z,49.82
2018-08-23T13:52:04.413Z,50.90
2018-08-23T13:53:28.273Z,51.27
2018-08-23T13:54:55.885Z,51.35
2018-08-23T13:56:23.507Z,50.23
2018-08-23T13:57:51.198Z,51.31
2018-08-23T13:59:18.035Z,51.83
2018-08-23T14:00:45.784Z,52.45
2018-08-23T14:02:13.477Z,53.53
2018-08-23T14:03:41.244Z,53.05
2018-08-23T14:05:08.746Z,52.75
2018-08-23T14:06:36.391Z,55.24
2018-08-23T14:08:04.100Z,57.29
2018-08-23T14:09:31.882Z,58.29
2018-08-23T14:10:58.697Z,60.41
2018-08-23T14:12:29.936Z,58.86
2018-08-23T14:13:57.442Z,58.63
2018-08-23T14:15:20.227Z,62.60
2018-08-23T14:16:46.689Z,60.29
2018-08-23T14:18:18.487Z,63.18
2018-08-23T14:19:41.284Z,61.29
2018-08-23T14:21:08.864Z,60.73
2018-08-23T14:22:36.599Z,62.32
2018-08-23T14:24:08.325Z,64.17
2018-08-23T14:25:28.933Z,63.72
2018-08-23T14:26:59.734Z,65.41
2018-08-23T14:28:30.247Z,62.49
2018-08-23T14:29:57.545Z,62.64
2018-08-23T14:31:25.239Z,65.92
2018-08-23T14:32:47.890Z,67.72
2018-08-23T14:34:15.558Z,64.37
2018-08-23T14:35:43.290Z,65.00
2018-08-23T14:37:09.943Z,67.21
2018-08-23T14:38:41.632Z,66.56
2018-08-23T14:40:09.420Z,66.10
2018-08-23T14:41:33.094Z,66.78
2018-08-23T14:42:59.763Z,66.25
2018-08-23T14:44:27.460Z,67.13
2018-08-23T14:45:58.856Z,67.09
2018-08-23T14:47:22.534Z,69.32
2018-08-23T14:48:54.228Z,68.74
2018-08-23T14:50:18.043Z,67.98
2018-08-23T14:51:49.767Z,69.62
2018-08-23T14:53:17.508Z,71.39
2018-08-23T14:54:41.206Z,72.20
2018-08-23T14:56:08.831Z,71.87
2018-08-23T14:57:36.628Z,72.03
2018-08-23T14:59:07.367Z,71.77
2018-08-23T15:00:33.881Z,71.76
2018-08-23T15:01:57.648Z,70.92
2018-08-23T15:03:25.248Z,72.23
2018-08-23T15:04:56.935Z,72.59
2018-08-23T15:06:24.469Z,71.03
2018-08-23T15:07:48.103Z,73.69
2018-08-23T15:09:19.820Z,74.38
2018-08-23T15:10:47.237Z,74.25
2018-08-23T15:12:11.068Z,75.61
2018-08-23T15:13:38.703Z,74.73
2018-08-23T15:15:06.617Z,74.77
2018-08-23T15:16:34.034Z,75.69
2018-08-23T15:18:01.841Z,76.83
2018-08-23T15:19:29.460Z,74.69
2018-08-23T15:20:57.353Z,76.27
2018-08-23T15:22:24.808Z,76.15
2018-08-23T15:23:51.587Z,74.77
2018-08-23T15:25:22.598Z,76.22
2018-08-23T15:26:50.050Z,76.85
2018-08-23T15:28:12.622Z,76.87
2018-08-23T15:29:40.413Z,77.61
2018-08-23T15:31:08.077Z,76.59
2018-08-23T15:32:39.711Z,76.16
2018-08-23T15:34:02.914Z,76.95
2018-08-23T15:35:34.500Z,76.79
2018-08-23T15:36:58.098Z,76.64
2018-08-23T15:38:29.739Z,77.48
2018-08-23T15:39:53.466Z,77.32
2018-08-23T15:41:20.554Z,77.93
2018-08-23T15:42:48.136Z,77.92
2018-08-23T15:44:14.831Z,78.45
2018-08-23T15:45:46.539Z,79.04
2018-08-23T15:47:10.203Z,79.03
2018-08-23T15:48:37.981Z,79.28
2018-08-23T15:50:05.639Z,79.86
2018-08-23T15:51:33.141Z,79.73
2018-08-23T15:53:04.907Z,79.78
2018-08-23T15:54:28.533Z,79.45
2018-08-23T15:56:00.221Z,80.68
2018-08-23T15:57:27.829Z,79.29
2018-08-23T15:58:50.993Z,79.94
2018-08-23T16:00:18.728Z,80.31
2018-08-23T16:01:45.321Z,80.82
2018-08-23T16:03:12.899Z,80.15
2018-08-23T16:04:39.598Z,80.65
2018-08-23T16:06:07.263Z,81.48
2018-08-23T16:07:38.844Z,80.61
2018-08-23T16:09:02.483Z,81.55
2018-08-23T16:10:34.072Z,82.38
2018-08-23T16:12:00.958Z,82.50
2018-08-23T16:13:27.780Z,83.60
2018-08-23T16:14:51.511Z,83.89
2018-08-23T16:16:19.203Z,83.19
2018-08-23T16:17:46.952Z,83.93
2018-08-23T16:19:14.330Z,83.81
2018-08-23T16:20:40.873Z,84.15
2018-08-23T16:22:12.683Z,83.67
2018-08-23T16:23:40.397Z,83.07
2018-08-23T16:25:08.133Z,84.89
2018-08-23T16:26:35.752Z,83.97
2018-08-23T16:27:58.311Z,84.02
2018-08-23T16:29:24.842Z,84.49
2018-08-23T16:30:52.379Z,84.38
2018-08-23T16:32:19.989Z,84.82
2018-08-23T16:33:47.701Z,83.90
2018-08-23T16:35:15.307Z,84.21
2018-08-23T16:36:41.707Z,84.17
2018-08-23T16:38:09.447Z,84.86
2018-08-23T16:39:40.184Z,84.23
2018-08-23T16:41:06.940Z,83.84
2018-08-23T16:42:30.653Z,84.01
2018-08-23T16:44:02.240Z,82.92
2018-08-23T16:45:29.641Z,83.73
2018-08-23T16:46:57.067Z,82.10
2018-08-23T16:48:24.731Z,81.31
2018-08-23T16:49:48.336Z,80.54
2018-08-23T16:51:16.056Z,81.29
2018-08-23T16:52:47.681Z,80.88
2018-08-23T16:54:15.379Z,80.26
2018-08-23T16:55:39.099Z,79.86
2018-08-23T16:57:06.677Z,79.89
2018-08-23T16:58:34.563Z,80.10
2018-08-23T17:00:06.121Z,81.61
2018-08-23T17:01:33.686Z,80.29
2018-08-23T17:02:57.399Z,79.63
2018-08-23T17:04:24.070Z,80.07
2018-08-23T17:05:51.168Z,79.05
2018-08-23T17:07:22.305Z,78.42
2018-08-23T17:08:46.030Z,80.11
2018-08-23T17:10:13.814Z,80.62
2018-08-23T17:11:40.528Z,80.68
2018-08-23T17:13:08.111Z,81.22
2018-08-23T17:14:35.455Z,80.61
2018-08-23T17:16:02.921Z,80.08
2018-08-23T17:17:30.617Z,80.95
2018-08-23T17:19:01.151Z,80.48
2018-08-23T17:20:24.771Z,80.84
2018-08-23T17:21:52.266Z,80.82
2018-08-23T17:23:19.680Z,81.44
2018-08-23T17:24:46.503Z,81.02
2018-08-23T17:26:14.087Z,80.73
2018-08-23T17:27:45.650Z,80.60
2018-08-23T17:29:09.329Z,79.99
2018-08-23T17:30:41.106Z,80.00
2018-08-23T17:32:04.755Z,80.73
2018-08-23T17:33:32.336Z,80.38
2018-08-23T17:34:59.096Z,81.65
2018-08-23T17:36:26.656Z,82.07
2018-08-23T17:37:53.932Z,81.02
2018-08-23T17:39:21.563Z,80.83
2018-08-23T17:40:48.985Z,81.40
2018-08-23T17:42:20.644Z,81.08
2018-08-23T17:43:44.236Z,82.30
2018-08-23T17:45:11.963Z,81.81
2018-08-23T17:46:38.473Z,81.73
2018-08-23T17:48:06.041Z,82.15
2018-08-23T17:49:33.761Z,82.62
2018-08-23T17:51:01.475Z,82.25
2018-08-23T17:52:33.084Z,83.86
2018-08-23T17:54:00.798Z,83.87
2018-08-23T17:55:28.506Z,84.27
2018-08-23T17:56:55.813Z,86.21
2018-08-23T17:58:19.321Z,87.30
2018-08-23T17:59:47.057Z,90.23
2018-08-23T18:01:14.603Z,98.82
2018-08-23T18:02:40.926Z,100.00
2018-08-23T18:04:07.537Z,100.00
2018-08-23T18:05:35.196Z,100.00
2018-08-23T18:07:02.794Z,100.00
2018-08-23T18:08:34.507Z,100.00
2018-08-23T18:10:00.937Z,100.00
2018-08-23T18:11:23.562Z,100.00
2018-08-23T18:12:50.290Z,100.00
2018-08-23T18:14:18.022Z,100.00
2018-08-23T18:15:45.706Z,100.00
2018-08-23T18:17:17.289Z,100.00
2018-08-23T18:18:39.815Z,100.00
2018-08-23T18:20:05.998Z,100.00
2018-08-23T18:21:37.591Z,100.00
2018-08-23T18:23:01.264Z,100.00
2018-08-23T18:24:27.889Z,100.00
2018-08-23T18:25:55.027Z,100.00
2018-08-23T18:27:22.636Z,100.00
2018-08-23T18:28:54.417Z,100.00
2018-08-23T18:30:22.191Z,100.00
2018-08-23T18:31:48.388Z,100.00
2018-08-23T18:33:12.039Z,100.00
2018-08-23T18:34:39.487Z,100.00
2018-08-23T18:36:10.066Z,100.00
2018-08-23T18:37:37.781Z,100.00
2018-08-23T18:39:01.288Z,100.00
2018-08-23T18:40:27.758Z,100.00
2018-08-23T18:41:54.147Z,100.00
2018-08-23T18:43:20.503Z,100.00
2018-08-23T18:44:51.863Z,100.00
2018-08-23T18:46:19.318Z,100.00